createdAt,value
2019-02-14T00:00:44.511Z,-1.00
2019-02-14T00:03:13.241Z,-1.00
2019-02-14T00:05:42.076Z,-1.00
2019-02-14T00:08:10.821Z,-0.90
2019-02-14T00:10:40.902Z,-0.90
2019-02-14T00:13:09.746Z,-1.00
2019-02-14T00:15:38.581Z,-1.00
2019-02-14T00:18:07.362Z,-1.00
2019-02-14T00:20:36.113Z,-1.00
2019-02-14T00:23:04.896Z,-1.00
2019-02-14T00:25:33.621Z,-1.00
2019-02-14T00:28:02.394Z,-1.00
2019-02-14T00:30:31.137Z,-1.10
2019-02-14T00:33:00.046Z,-1.00
2019-02-14T00:35:28.876Z,-0.90
2019-02-14T00:37:57.696Z,-1.00
2019-02-14T00:40:26.775Z,-1.00
2019-02-14T00:42:55.729Z,-1.10
2019-02-14T00:45:24.544Z,-1.10
2019-02-14T00:47:53.472Z,-1.10
2019-02-14T00:50:22.326Z,-1.10
2019-02-14T00:52:51.165Z,-1.10
2019-02-14T00:55:19.901Z,-1.10
2019-02-14T00:57:50.041Z,-1.00
2019-02-14T01:00:18.852Z,-1.00
2019-02-14T01:02:47.626Z,-0.90
2019-02-14T01:05:16.590Z,-0.90
2019-02-14T01:07:45.447Z,-1.00
2019-02-14T01:10:14.213Z,-1.20
2019-02-14T01:12:43.032Z,-1.10
2019-02-14T01:15:11.868Z,-1.20
2019-02-14T01:17:40.609Z,-1.20
2019-02-14T01:20:09.557Z,-1.20
2019-02-14T01:22:38.365Z,-1.30
2019-02-14T01:25:07.744Z,-1.30
2019-02-14T01:27:36.497Z,-1.30
2019-02-14T01:30:08.209Z,-1.30
2019-02-14T01:32:37.017Z,-1.20
2019-02-14T01:35:08.530Z,-1.20
2019-02-14T01:37:37.265Z,-1.20
2019-02-14T01:40:07.237Z,-1.20
2019-02-14T01:42:37.761Z,-1.20
2019-02-14T01:45:10.001Z,-1.20
2019-02-14T01:47:38.793Z,-1.20
2019-02-14T01:50:10.450Z,-1.30
2019-02-14T01:52:39.269Z,-1.40
2019-02-14T01:55:08.005Z,-1.40
2019-02-14T01:57:36.778Z,-1.40
2019-02-14T02:00:10.160Z,-1.30
2019-02-14T02:02:39.015Z,-1.40
2019-02-14T02:05:07.984Z,-1.40
2019-02-14T02:07:36.816Z,-1.40
2019-02-14T02:10:10.973Z,-1.40
2019-02-14T02:12:41.864Z,-1.40
2019-02-14T02:15:14.423Z,-1.40
2019-02-14T02:17:43.193Z,-1.40
2019-02-14T02:20:12.801Z,-1.30
2019-02-14T02:22:41.637Z,-1.40
2019-02-14T02:25:12.046Z,-1.30
2019-02-14T02:27:40.817Z,-1.30
2019-02-14T02:30:12.226Z,-1.30
2019-02-14T02:32:42.633Z,-1.20
2019-02-14T02:35:11.463Z,-1.20
2019-02-14T02:37:40.229Z,-1.20
2019-02-14T02:40:09.813Z,-1.10
2019-02-14T02:42:38.672Z,-1.10
2019-02-14T02:45:12.145Z,-1.10
2019-02-14T02:47:40.958Z,-1.10
2019-02-14T02:50:12.288Z,-1.00
2019-02-14T02:52:41.152Z,-1.00
2019-02-14T02:55:10.740Z,-0.90
2019-02-14T02:57:39.534Z,-0.90
2019-02-14T03:00:17.082Z,-1.00
2019-02-14T03:02:45.980Z,-1.00
2019-02-14T03:05:15.845Z,-1.10
2019-02-14T03:07:44.633Z,-1.10
2019-02-14T03:10:14.312Z,-1.10
2019-02-14T03:12:43.057Z,-1.10
2019-02-14T03:15:13.725Z,-1.00
2019-02-14T03:17:42.530Z,-1.10
2019-02-14T03:20:12.633Z,-1.10
2019-02-14T03:22:41.445Z,-1.10
2019-02-14T03:25:19.625Z,-1.10
2019-02-14T03:27:49.840Z,-1.10
2019-02-14T03:30:18.690Z,-1.00
2019-02-14T03:32:47.418Z,-1.00
2019-02-14T03:35:16.189Z,-1.00
2019-02-14T03:37:44.930Z,-1.10
2019-02-14T03:40:14.964Z,-1.10
2019-02-14T03:42:43.846Z,-1.10
2019-02-14T03:45:18.257Z,-1.10
2019-02-14T03:47:47.023Z,-1.10
2019-02-14T03:50:15.764Z,-1.10
2019-02-14T03:52:44.614Z,-1.10
2019-02-14T03:55:13.357Z,-1.20
2019-02-14T03:57:42.129Z,-1.20
2019-02-14T04:00:31.662Z,-1.20
2019-02-14T04:03:00.438Z,-1.20
2019-02-14T04:05:29.165Z,-1.20
2019-02-14T04:07:57.932Z,-1.30
2019-02-14T04:10:26.679Z,-1.30
2019-02-14T04:12:55.517Z,-1.30
2019-02-14T04:15:24.257Z,-1.30
2019-02-14T04:17:53.102Z,-1.30
2019-02-14T04:20:21.912Z,-1.30
2019-02-14T04:22:50.682Z,-1.40
2019-02-14T04:25:19.453Z,-1.40
2019-02-14T04:27:48.265Z,-1.50
2019-02-14T04:30:17.065Z,-1.50
2019-02-14T04:32:45.820Z,-1.50
2019-02-14T04:35:15.199Z,-1.50
2019-02-14T04:37:43.925Z,-1.40
2019-02-14T04:40:13.890Z,-1.40
2019-02-14T04:42:42.745Z,-1.30
2019-02-14T04:45:12.976Z,-1.30
2019-02-14T04:47:42.077Z,-1.30
2019-02-14T04:50:11.757Z,-1.30
2019-02-14T04:52:40.492Z,-1.20
2019-02-14T04:55:10.734Z,-1.10
2019-02-14T04:57:39.481Z,-1.10
2019-02-14T05:00:13.309Z,-1.10
2019-02-14T05:02:42.065Z,-1.00
2019-02-14T05:05:11.248Z,-1.00
2019-02-14T05:07:40.012Z,-0.90
2019-02-14T05:10:10.550Z,-0.80
2019-02-14T05:12:39.362Z,-0.90
2019-02-14T05:15:09.673Z,-0.90
2019-02-14T05:17:38.540Z,-0.90
2019-02-14T05:20:11.925Z,-0.80
2019-02-14T05:22:42.016Z,-0.80
2019-02-14T05:25:11.118Z,-0.80
2019-02-14T05:27:39.973Z,-0.90
2019-02-14T05:30:14.173Z,-0.90
2019-02-14T05:32:42.942Z,-0.90
2019-02-14T05:35:11.677Z,-0.90
2019-02-14T05:37:40.529Z,-0.80
2019-02-14T05:40:11.196Z,-0.80
2019-02-14T05:42:40.040Z,-0.70
2019-02-14T05:45:12.940Z,-0.70
2019-02-14T05:47:41.713Z,-0.80
2019-02-14T05:50:12.185Z,-0.80
2019-02-14T05:52:41.100Z,-0.90
2019-02-14T05:55:11.683Z,-0.90
2019-02-14T05:57:40.583Z,-0.90
2019-02-14T06:00:14.968Z,-0.90
2019-02-14T06:02:43.853Z,-1.00
2019-02-14T06:05:12.766Z,-1.00
2019-02-14T06:07:41.502Z,-1.00
2019-02-14T06:10:12.097Z,-1.00
2019-02-14T06:12:40.838Z,-1.00
2019-02-14T06:15:11.672Z,-1.00
2019-02-14T06:17:40.416Z,-1.00
2019-02-14T06:20:11.713Z,-1.10
2019-02-14T06:22:41.582Z,-1.20
2019-02-14T06:25:11.664Z,-1.30
2019-02-14T06:27:40.427Z,-1.40
2019-02-14T06:30:14.265Z,-1.30
2019-02-14T06:32:43.005Z,-1.30
2019-02-14T06:35:34.146Z,-1.20
2019-02-14T06:38:02.950Z,-1.20
2019-02-14T06:40:31.925Z,-1.20
2019-02-14T06:43:00.744Z,-1.20
2019-02-14T06:45:29.650Z,-1.10
2019-02-14T06:47:58.385Z,-1.10
2019-02-14T06:50:34.590Z,-1.00
2019-02-14T06:52:57.594Z,-0.90
2019-02-14T06:55:27.876Z,-0.80
2019-02-14T06:57:56.789Z,-0.80
2019-02-14T07:00:25.593Z,-0.80
2019-02-14T07:02:54.361Z,-0.70
2019-02-14T07:05:25.477Z,-0.70
2019-02-14T07:07:55.861Z,-0.60
2019-02-14T07:10:24.670Z,-0.60
2019-02-14T07:12:53.457Z,-0.50
2019-02-14T07:15:22.198Z,-0.60
2019-02-14T07:17:51.049Z,-0.50
2019-02-14T07:20:19.901Z,-0.50
2019-02-14T07:22:48.693Z,-0.40
2019-02-14T07:25:17.445Z,-0.40
2019-02-14T07:27:46.273Z,-0.40
2019-02-14T07:30:20.469Z,-0.40
2019-02-14T07:32:49.297Z,-0.50
2019-02-14T07:35:18.033Z,-0.50
2019-02-14T07:37:46.802Z,-0.40
2019-02-14T07:40:15.774Z,-0.30
2019-02-14T07:42:44.630Z,-0.20
2019-02-14T07:45:19.457Z,-0.20
2019-02-14T07:47:48.216Z,-0.10
2019-02-14T07:50:16.982Z,0.00
2019-02-14T07:52:45.821Z,0.10
2019-02-14T07:55:15.204Z,0.10
2019-02-14T07:57:45.684Z,0.10
2019-02-14T08:00:16.521Z,0.10
2019-02-14T08:02:45.249Z,0.20
2019-02-14T08:05:14.017Z,0.40
2019-02-14T08:07:42.825Z,0.50
2019-02-14T08:10:14.538Z,0.70
2019-02-14T08:12:43.264Z,0.80
2019-02-14T08:15:13.742Z,0.90
2019-02-14T08:17:42.557Z,1.10
2019-02-14T08:20:19.471Z,1.20
2019-02-14T08:22:48.215Z,1.30
2019-02-14T08:25:16.940Z,1.40
2019-02-14T08:27:45.704Z,1.40
2019-02-14T08:30:16.321Z,1.50
2019-02-14T08:32:45.197Z,1.50
2019-02-14T08:35:13.933Z,1.50
2019-02-14T08:37:45.461Z,1.40
2019-02-14T08:40:22.185Z,1.50
2019-02-14T08:42:51.025Z,1.50
2019-02-14T08:45:19.822Z,1.60
2019-02-14T08:47:48.586Z,1.70
2019-02-14T08:50:17.321Z,1.90
2019-02-14T08:52:46.076Z,2.00
2019-02-14T08:55:14.807Z,2.10
2019-02-14T08:57:45.313Z,2.20
2019-02-14T09:00:15.676Z,2.20
2019-02-14T09:02:44.448Z,2.40
2019-02-14T09:05:13.482Z,2.40
2019-02-14T09:07:42.227Z,2.60
2019-02-14T09:10:13.826Z,2.60
2019-02-14T09:12:42.696Z,2.70
2019-02-14T09:15:13.995Z,2.80
2019-02-14T09:17:42.718Z,2.90
2019-02-14T09:20:14.485Z,3.10
2019-02-14T09:22:43.272Z,3.20
2019-02-14T09:25:12.060Z,3.40
2019-02-14T09:27:40.793Z,3.50
2019-02-14T09:30:12.706Z,3.70
2019-02-14T09:32:41.706Z,3.70
2019-02-14T09:35:11.008Z,3.80
2019-02-14T09:37:39.771Z,3.90
2019-02-14T09:40:19.242Z,3.90
2019-02-14T09:42:47.980Z,4.00
2019-02-14T09:45:16.805Z,4.00
2019-02-14T09:47:45.540Z,4.10
2019-02-14T09:50:18.032Z,4.20
2019-02-14T09:52:46.475Z,4.20
2019-02-14T09:55:15.304Z,4.30
2019-02-14T09:57:44.076Z,4.30
2019-02-14T10:00:19.813Z,4.40
2019-02-14T10:02:48.702Z,4.40
2019-02-14T10:05:17.514Z,4.60
2019-02-14T10:07:46.300Z,4.70
2019-02-14T10:10:17.549Z,4.90
2019-02-14T10:12:46.377Z,5.00
2019-02-14T10:15:15.540Z,5.20
2019-02-14T10:17:44.368Z,5.30
2019-02-14T10:20:17.818Z,5.30
2019-02-14T10:22:46.652Z,5.40
2019-02-14T10:25:15.377Z,5.60
2019-02-14T10:27:44.225Z,5.60
2019-02-14T10:30:15.524Z,5.70
2019-02-14T10:32:44.345Z,5.70
2019-02-14T10:35:13.273Z,5.70
2019-02-14T10:37:42.096Z,5.80
2019-02-14T10:40:13.134Z,5.90
2019-02-14T10:42:41.860Z,6.00
2019-02-14T10:45:21.197Z,6.10
2019-02-14T10:47:49.926Z,6.10
2019-02-14T10:50:18.859Z,6.10
2019-02-14T10:52:47.657Z,6.20
2019-02-14T10:55:16.681Z,6.10
2019-02-14T10:57:45.417Z,6.20
2019-02-14T11:00:17.897Z,6.30
2019-02-14T11:02:47.145Z,6.30
2019-02-14T11:05:16.702Z,6.20
2019-02-14T11:07:45.433Z,6.20
2019-02-14T11:10:15.097Z,6.20
2019-02-14T11:12:43.993Z,6.30
2019-02-14T11:15:18.177Z,6.50
2019-02-14T11:17:48.929Z,6.40
2019-02-14T11:20:18.099Z,6.50
2019-02-14T11:22:48.773Z,6.40
2019-02-14T11:25:32.760Z,6.40
2019-02-14T11:28:01.585Z,6.80
2019-02-14T11:30:30.390Z,7.00
2019-02-14T11:32:59.194Z,7.00
2019-02-14T11:35:28.730Z,7.00
2019-02-14T11:37:57.497Z,6.90
2019-02-14T11:40:26.289Z,7.30
2019-02-14T11:42:56.597Z,7.50
2019-02-14T11:45:26.385Z,7.50
2019-02-14T11:47:55.298Z,7.50
2019-02-14T11:50:24.102Z,7.40
2019-02-14T11:52:53.233Z,7.50
2019-02-14T11:55:21.961Z,7.70
2019-02-14T11:57:50.733Z,7.80
2019-02-14T12:00:25.784Z,7.90
2019-02-14T12:02:55.889Z,8.00
2019-02-14T12:05:25.095Z,7.90
2019-02-14T12:07:53.840Z,7.80
2019-02-14T12:10:22.613Z,7.70
2019-02-14T12:12:51.341Z,7.60
2019-02-14T12:15:20.093Z,7.80
2019-02-14T12:17:48.932Z,8.00
2019-02-14T12:20:17.749Z,7.90
2019-02-14T12:22:47.721Z,8.00
2019-02-14T12:25:22.369Z,8.10
2019-02-14T12:27:51.097Z,8.20
2019-02-14T12:30:19.849Z,8.20
2019-02-14T12:32:49.785Z,8.00
2019-02-14T12:35:18.714Z,8.10
2019-02-14T12:37:47.446Z,8.10
2019-02-14T12:40:16.206Z,8.20
2019-02-14T12:42:44.933Z,8.30
2019-02-14T12:45:21.545Z,8.40
2019-02-14T12:47:50.030Z,8.30
2019-02-14T12:50:18.881Z,8.30
2019-02-14T12:52:47.689Z,8.30
2019-02-14T12:55:16.450Z,8.30
2019-02-14T12:57:45.284Z,8.40
2019-02-14T13:00:17.302Z,8.30
2019-02-14T13:02:46.333Z,8.30
2019-02-14T13:05:15.143Z,8.30
2019-02-14T13:07:43.948Z,8.30
2019-02-14T13:10:19.370Z,8.30
2019-02-14T13:12:48.800Z,8.30
2019-02-14T13:15:23.136Z,8.40
2019-02-14T13:17:51.899Z,8.50
2019-02-14T13:20:20.924Z,8.60
2019-02-14T13:22:49.727Z,8.40
2019-02-14T13:25:18.554Z,8.50
2019-02-14T13:27:47.467Z,8.60
2019-02-14T13:30:18.904Z,8.50
2019-02-14T13:32:47.984Z,8.50
2019-02-14T13:35:17.821Z,8.50
2019-02-14T13:37:46.598Z,8.40
2019-02-14T13:40:15.361Z,8.20
2019-02-14T13:42:44.236Z,8.30
2019-02-14T13:45:15.765Z,8.50
2019-02-14T13:47:44.745Z,8.50
2019-02-14T13:50:15.940Z,8.40
2019-02-14T13:52:44.400Z,8.40
2019-02-14T13:55:13.444Z,8.60
2019-02-14T13:57:42.245Z,8.70
2019-02-14T14:00:19.815Z,8.80
2019-02-14T14:02:48.544Z,8.80
2019-02-14T14:05:17.801Z,8.60
2019-02-14T14:07:46.526Z,8.60
2019-02-14T14:10:15.394Z,8.60
2019-02-14T14:12:44.179Z,8.70
2019-02-14T14:15:13.039Z,8.60
2019-02-14T14:17:41.768Z,8.60
2019-02-14T14:20:10.545Z,8.60
2019-02-14T14:22:39.274Z,8.60
2019-02-14T14:25:11.845Z,8.60
2019-02-14T14:27:40.679Z,8.60
2019-02-14T14:30:13.501Z,8.50
2019-02-14T14:32:42.335Z,8.50
2019-02-14T14:35:12.263Z,8.60
2019-02-14T14:37:41.303Z,8.60
2019-02-14T14:40:20.088Z,8.50
2019-02-14T14:42:52.789Z,8.60
2019-02-14T14:45:23.157Z,8.50
2019-02-14T14:47:51.917Z,8.40
2019-02-14T14:50:20.645Z,8.40
2019-02-14T14:52:49.462Z,8.30
2019-02-14T14:55:18.209Z,8.20
2019-02-14T14:57:47.038Z,8.10
2019-02-14T15:00:15.842Z,8.30
2019-02-14T15:02:44.719Z,8.20
2019-02-14T15:05:13.521Z,8.20
2019-02-14T15:07:42.286Z,8.30
2019-02-14T15:10:11.121Z,8.30
2019-02-14T15:12:39.857Z,8.40
2019-02-14T15:15:08.888Z,8.40
2019-02-14T15:17:37.621Z,8.50
2019-02-14T15:20:12.366Z,8.50
2019-02-14T15:22:41.165Z,8.60
2019-02-14T15:25:09.941Z,8.50
2019-02-14T15:27:38.700Z,8.50
2019-02-14T15:30:07.847Z,8.60
2019-02-14T15:32:36.733Z,8.70
2019-02-14T15:35:07.502Z,8.80
2019-02-14T15:37:37.708Z,8.80
2019-02-14T15:40:09.873Z,8.70
2019-02-14T15:42:39.426Z,8.80
2019-02-14T15:45:08.672Z,9.10
2019-02-14T15:47:37.920Z,9.20
2019-02-14T15:50:08.988Z,9.30
2019-02-14T15:52:38.171Z,9.30
2019-02-14T15:55:11.445Z,9.40
2019-02-14T15:57:42.320Z,9.50
2019-02-14T16:00:13.136Z,9.70
2019-02-14T16:02:41.897Z,9.70
2019-02-14T16:05:10.689Z,9.60
2019-02-14T16:07:41.526Z,9.20
2019-02-14T16:10:18.128Z,8.70
2019-02-14T16:12:42.982Z,8.30
2019-02-14T16:15:11.205Z,7.80
2019-02-14T16:17:40.029Z,7.40
2019-02-14T16:20:10.132Z,7.10
2019-02-14T16:22:40.182Z,6.80
2019-02-14T16:25:09.469Z,6.60
2019-02-14T16:27:38.230Z,6.40
2019-02-14T16:30:09.672Z,6.20
2019-02-14T16:32:38.392Z,5.90
2019-02-14T16:35:08.053Z,5.70
2019-02-14T16:37:36.789Z,5.60
2019-02-14T16:40:08.617Z,5.40
2019-02-14T16:42:37.355Z,5.30
2019-02-14T16:45:08.113Z,5.10
2019-02-14T16:47:36.918Z,5.00
2019-02-14T16:50:08.481Z,4.90
2019-02-14T16:52:37.206Z,4.80
2019-02-14T16:57:26.946Z,4.60
2019-02-14T16:59:55.709Z,4.50
2019-02-14T17:02:24.478Z,4.30
2019-02-14T17:04:53.274Z,4.20
2019-02-14T17:07:22.044Z,4.10
2019-02-14T17:09:50.774Z,4.00
2019-02-14T17:12:19.546Z,3.90
2019-02-14T17:14:48.425Z,3.90
2019-02-14T17:17:17.259Z,3.80
2019-02-14T17:19:45.997Z,3.80
2019-02-14T17:22:14.763Z,3.70
2019-02-14T17:24:45.239Z,3.60
2019-02-14T17:27:13.950Z,3.50
2019-02-14T17:29:42.762Z,3.50
2019-02-14T17:32:11.537Z,3.40
2019-02-14T17:34:40.274Z,3.40
2019-02-14T17:37:09.089Z,3.40
2019-02-14T17:39:37.825Z,3.30
2019-02-14T17:42:06.561Z,3.20
2019-02-14T17:44:35.342Z,3.20
2019-02-14T17:47:04.097Z,3.20
2019-02-14T17:49:33.464Z,3.10
2019-02-14T17:52:02.197Z,3.00
2019-02-14T17:54:31.024Z,3.00
2019-02-14T17:56:59.762Z,3.00
2019-02-14T17:59:28.529Z,2.90
2019-02-14T18:01:57.380Z,2.90
2019-02-14T18:04:27.835Z,2.80
2019-02-14T18:06:56.627Z,2.80
2019-02-14T18:09:25.394Z,2.80
2019-02-14T18:11:55.359Z,2.80
2019-02-14T18:14:24.180Z,2.80
2019-02-14T18:16:53.031Z,2.80
2019-02-14T18:19:23.124Z,2.70
2019-02-14T18:21:51.965Z,2.70
2019-02-14T18:24:20.897Z,2.70
2019-02-14T18:26:49.790Z,2.70
2019-02-14T18:29:18.554Z,2.60
2019-02-14T18:31:47.333Z,2.60
2019-02-14T18:34:16.078Z,2.50
2019-02-14T18:36:44.837Z,2.40
2019-02-14T18:39:13.633Z,2.40
2019-02-14T18:41:42.397Z,2.40
2019-02-14T18:44:12.733Z,2.40
2019-02-14T18:46:41.561Z,2.40
2019-02-14T18:49:13.426Z,2.30
2019-02-14T18:51:43.951Z,2.20
2019-02-14T18:54:12.914Z,2.20
2019-02-14T18:56:41.598Z,2.20
2019-02-14T18:59:12.065Z,2.20
2019-02-14T19:01:42.342Z,2.20
2019-02-14T19:04:11.187Z,2.20
2019-02-14T19:06:39.927Z,2.20
2019-02-14T19:09:09.197Z,2.10
2019-02-14T19:11:38.025Z,2.10
2019-02-14T19:14:06.791Z,2.10
2019-02-14T19:16:35.588Z,2.00
2019-02-14T19:19:04.358Z,2.00
2019-02-14T19:21:33.179Z,1.90
2019-02-14T19:24:01.930Z,1.90
2019-02-14T19:26:30.667Z,1.80
2019-02-14T19:28:59.430Z,1.80
2019-02-14T19:31:28.249Z,1.70
2019-02-14T19:33:57.032Z,1.70
2019-02-14T19:36:25.763Z,1.60
2019-02-14T19:38:54.589Z,1.60
2019-02-14T19:41:25.330Z,1.50
2019-02-14T19:43:53.876Z,1.40
2019-02-14T19:46:22.813Z,1.40
2019-02-14T19:48:51.637Z,1.40
2019-02-14T19:51:21.452Z,1.40
2019-02-14T19:53:50.242Z,1.40
2019-02-14T19:56:19.110Z,1.40
2019-02-14T19:58:47.937Z,1.40
2019-02-14T20:01:16.862Z,1.40
2019-02-14T20:03:46.791Z,1.40
2019-02-14T20:06:17.277Z,1.30
2019-02-14T20:08:46.141Z,1.30
2019-02-14T20:11:14.961Z,1.30
2019-02-14T20:13:49.507Z,1.30
2019-02-14T20:16:14.224Z,1.30
2019-02-14T20:18:43.028Z,1.30
2019-02-14T20:21:11.793Z,1.30
2019-02-14T20:23:40.610Z,1.20
2019-02-14T20:26:09.445Z,1.20
2019-02-14T20:28:38.250Z,1.20
2019-02-14T20:31:07.012Z,1.20
2019-02-14T20:33:35.830Z,1.20
2019-02-14T20:36:04.649Z,1.10
2019-02-14T20:38:33.376Z,1.00
2019-02-14T20:41:02.150Z,1.00
2019-02-14T20:43:30.982Z,1.00
2019-02-14T20:45:59.825Z,1.00
2019-02-14T20:48:28.561Z,0.90
2019-02-14T20:50:57.373Z,0.90
2019-02-14T20:53:26.130Z,0.90
2019-02-14T20:55:54.928Z,0.90
2019-02-14T20:58:23.697Z,0.90
2019-02-14T21:00:52.439Z,0.90
2019-02-14T21:03:21.256Z,0.90
2019-02-14T21:05:49.988Z,0.80
2019-02-14T21:08:18.797Z,0.80
2019-02-14T21:10:47.534Z,0.80
2019-02-14T21:13:16.294Z,0.70
2019-02-14T21:15:45.030Z,0.70
2019-02-14T21:18:13.794Z,0.70
2019-02-14T21:20:42.611Z,0.70
2019-02-14T21:23:11.377Z,0.70
2019-02-14T21:25:40.185Z,0.70
2019-02-14T21:28:08.941Z,0.70
2019-02-14T21:30:37.741Z,0.70
2019-02-14T21:33:06.482Z,0.60
2019-02-14T21:35:35.319Z,0.60
2019-02-14T21:38:04.160Z,0.50
2019-02-14T21:40:33.006Z,0.60
2019-02-14T21:43:01.794Z,0.60
2019-02-14T21:45:30.600Z,0.60
2019-02-14T21:47:59.413Z,0.60
2019-02-14T21:50:28.205Z,0.60
2019-02-14T21:52:56.937Z,0.60
2019-02-14T21:55:25.764Z,0.60
2019-02-14T21:57:54.497Z,0.60
2019-02-14T22:00:27.263Z,0.60
2019-02-14T22:02:58.807Z,0.60
2019-02-14T22:05:27.627Z,0.60
2019-02-14T22:07:57.829Z,0.60
2019-02-14T22:10:26.603Z,0.60
2019-02-14T22:12:55.338Z,0.60
2019-02-14T22:15:28.777Z,0.50
2019-02-14T22:17:57.513Z,0.50
2019-02-14T22:20:26.277Z,0.40
2019-02-14T22:22:55.024Z,0.40
2019-02-14T22:25:23.782Z,0.40
2019-02-14T22:27:52.592Z,0.30
2019-02-14T22:30:21.337Z,0.20
2019-02-14T22:32:50.100Z,0.20
2019-02-14T22:35:18.914Z,0.30
2019-02-14T22:37:47.745Z,0.30
2019-02-14T22:40:18.433Z,0.30
2019-02-14T22:42:47.819Z,0.30
2019-02-14T22:45:16.814Z,0.30
2019-02-14T22:47:45.578Z,0.30
2019-02-14T22:50:14.515Z,0.20
2019-02-14T22:52:43.279Z,0.20
2019-02-14T22:55:13.210Z,0.20
2019-02-14T22:57:41.992Z,0.20
2019-02-14T23:00:33.410Z,0.10
2019-02-14T23:03:02.349Z,0.20
2019-02-14T23:05:31.086Z,0.10
2019-02-14T23:07:59.853Z,0.10
2019-02-14T23:10:28.593Z,0.10
2019-02-14T23:12:57.333Z,0.10
2019-02-14T23:15:26.185Z,0.00
2019-02-14T23:17:55.247Z,0.00
2019-02-14T23:20:24.076Z,0.00
2019-02-14T23:22:52.812Z,-0.10
2019-02-14T23:25:21.593Z,-0.10
2019-02-14T23:27:50.411Z,-0.10
2019-02-14T23:30:19.194Z,-0.20
2019-02-14T23:32:47.929Z,-0.20
2019-02-14T23:35:16.692Z,-0.20
2019-02-14T23:37:45.504Z,-0.20
2019-02-14T23:40:14.283Z,-0.10
2019-02-14T23:42:43.030Z,-0.10
2019-02-14T23:45:11.810Z,-0.20
2019-02-14T23:47:40.632Z,-0.20
2019-02-14T23:50:10.988Z,-0.20
2019-02-14T23:52:39.757Z,-0.20
2019-02-14T23:55:09.098Z,-0.20
2019-02-14T23:57:37.883Z,-0.20
